sensor_id;sensor_type;location;lat;lon;timestamp;P1;durP1;ratioP1;P2;durP2;ratioP2
58252;SDS011;44050;48.884;8.762;2022-07-29T00:00:17;1.17;;;1.10;;
58252;SDS011;44050;48.884;8.762;2022-07-29T00:02:48;1.85;;;1.75;;
58252;SDS011;44050;48.884;8.762;2022-07-29T00:07:49;4.13;;;1.73;;
58252;SDS011;44050;48.884;8.762;2022-07-29T00:10:22;2.63;;;1.48;;
58252;SDS011;44050;48.884;8.762;2022-07-29T00:12:53;2.72;;;1.50;;
58252;SDS011;44050;48.884;8.762;2022-07-29T00:17:54;1.33;;;1.27;;
58252;SDS011;44050;48.884;8.762;2022-07-29T00:22:56;2.03;;;1.93;;
58252;SDS011;44050;48.884;8.762;2022-07-29T00:27:57;1.25;;;1.15;;
58252;SDS011;44050;48.884;8.762;2022-07-29T00:30:28;3.55;;;2.03;;
58252;SDS011;44050;48.884;8.762;2022-07-29T00:35:29;3.20;;;2.20;;
58252;SDS011;44050;48.884;8.762;2022-07-29T00:38:17;1.95;;;0.65;;
58252;SDS011;44050;48.884;8.762;2022-07-29T00:40:48;1.83;;;1.65;;
58252;SDS011;44050;48.884;8.762;2022-07-29T00:45:49;1.38;;;1.27;;
58252;SDS011;44050;48.884;8.762;2022-07-29T00:50:51;1.37;;;1.30;;
58252;SDS011;44050;48.884;8.762;2022-07-29T00:53:21;4.50;;;1.75;;
58252;SDS011;44050;48.884;8.762;2022-07-29T00:58:23;2.15;;;1.60;;
58252;SDS011;44050;48.884;8.762;2022-07-29T01:03:24;1.35;;;1.25;;
58252;SDS011;44050;48.884;8.762;2022-07-29T01:08:26;1.77;;;1.67;;
58252;SDS011;44050;48.884;8.762;2022-07-29T01:10:56;1.27;;;1.17;;
58252;SDS011;44050;48.884;8.762;2022-07-29T01:15:59;1.55;;;1.45;;
58252;SDS011;44050;48.884;8.762;2022-07-29T01:18:34;2.17;;;2.03;;
58252;SDS011;44050;48.884;8.762;2022-07-29T01:23:48;1.58;;;1.48;;
58252;SDS011;44050;48.884;8.762;2022-07-29T01:32:10;1.60;;;1.55;;
58252;SDS011;44050;48.884;8.762;2022-07-29T01:34:17;2.15;;;2.00;;
58252;SDS011;44050;48.884;8.762;2022-07-29T01:36:50;1.85;;;1.75;;
58252;SDS011;44050;48.884;8.762;2022-07-29T01:39:31;1.20;;;1.17;;
58252;SDS011;44050;48.884;8.762;2022-07-29T01:42:20;1.65;;;1.33;;
58252;SDS011;44050;48.884;8.762;2022-07-29T01:47:26;1.83;;;1.73;;
58252;SDS011;44050;48.884;8.762;2022-07-29T01:49:59;1.60;;;1.50;;
58252;SDS011;44050;48.884;8.762;2022-07-29T01:52:35;2.05;;;1.65;;
58252;SDS011;44050;48.884;8.762;2022-07-29T01:55:13;1.77;;;1.65;;
58252;SDS011;44050;48.884;8.762;2022-07-29T01:57:45;2.03;;;1.70;;
58252;SDS011;44050;48.884;8.762;2022-07-29T02:00:17;1.45;;;1.38;;
58252;SDS011;44050;48.884;8.762;2022-07-29T02:02:47;2.20;;;2.00;;
58252;SDS011;44050;48.884;8.762;2022-07-29T02:05:19;1.40;;;1.30;;
58252;SDS011;44050;48.884;8.762;2022-07-29T02:07:51;1.60;;;1.50;;
58252;SDS011;44050;48.884;8.762;2022-07-29T02:10:23;1.77;;;1.48;;
58252;SDS011;44050;48.884;8.762;2022-07-29T02:12:56;2.08;;;1.98;;
58252;SDS011;44050;48.884;8.762;2022-07-29T02:15:28;2.25;;;1.67;;
58252;SDS011;44050;48.884;8.762;2022-07-29T02:18:15;6.25;;;2.13;;
58252;SDS011;44050;48.884;8.762;2022-07-29T02:20:48;1.48;;;1.38;;
58252;SDS011;44050;48.884;8.762;2022-07-29T02:23:20;1.35;;;1.27;;
58252;SDS011;44050;48.884;8.762;2022-07-29T02:25:56;1.83;;;1.67;;
58252;SDS011;44050;48.884;8.762;2022-07-29T02:28:27;1.17;;;1.00;;
58252;SDS011;44050;48.884;8.762;2022-07-29T02:30:59;1.40;;;1.40;;
58252;SDS011;44050;48.884;8.762;2022-07-29T02:33:31;1.88;;;1.77;;
58252;SDS011;44050;48.884;8.762;2022-07-29T02:36:02;1.30;;;1.20;;
58252;SDS011;44050;48.884;8.762;2022-07-29T02:38:33;1.08;;;1.02;;
58252;SDS011;44050;48.884;8.762;2022-07-29T02:41:26;8.57;;;1.50;;
58252;SDS011;44050;48.884;8.762;2022-07-29T02:44:06;1.75;;;1.65;;
58252;SDS011;44050;48.884;8.762;2022-07-29T02:46:46;0.80;;;0.80;;
58252;SDS011;44050;48.884;8.762;2022-07-29T02:49:23;1.25;;;0.93;;
58252;SDS011;44050;48.884;8.762;2022-07-29T02:52:00;1.00;;;1.00;;
58252;SDS011;44050;48.884;8.762;2022-07-29T02:54:39;1.38;;;1.27;;
58252;SDS011;44050;48.884;8.762;2022-07-29T02:57:18;1.27;;;1.17;;
58252;SDS011;44050;48.884;8.762;2022-07-29T02:59:50;1.05;;;1.05;;
58252;SDS011;44050;48.884;8.762;2022-07-29T03:02:22;1.05;;;1.05;;
58252;SDS011;44050;48.884;8.762;2022-07-29T03:07:23;1.13;;;1.13;;
58252;SDS011;44050;48.884;8.762;2022-07-29T03:09:55;0.77;;;0.77;;
58252;SDS011;44050;48.884;8.762;2022-07-29T03:12:26;0.70;;;0.70;;
58252;SDS011;44050;48.884;8.762;2022-07-29T03:17:27;0.65;;;0.65;;
58252;SDS011;44050;48.884;8.762;2022-07-29T03:20:00;1.10;;;0.80;;
58252;SDS011;44050;48.884;8.762;2022-07-29T03:22:31;1.50;;;1.13;;
58252;SDS011;44050;48.884;8.762;2022-07-29T03:27:33;0.65;;;0.65;;
58252;SDS011;44050;48.884;8.762;2022-07-29T03:30:05;1.17;;;1.10;;
58252;SDS011;44050;48.884;8.762;2022-07-29T03:32:36;1.52;;;1.20;;
58252;SDS011;44050;48.884;8.762;2022-07-29T03:37:37;0.85;;;0.85;;
58252;SDS011;44050;48.884;8.762;2022-07-29T03:42:39;1.33;;;1.07;;
58252;SDS011;44050;48.884;8.762;2022-07-29T03:45:13;0.95;;;0.55;;
58252;SDS011;44050;48.884;8.762;2022-07-29T03:47:45;0.70;;;0.70;;
58252;SDS011;44050;48.884;8.762;2022-07-29T03:50:18;1.20;;;0.85;;
58252;SDS011;44050;48.884;8.762;2022-07-29T03:52:51;1.48;;;1.38;;
58252;SDS011;44050;48.884;8.762;2022-07-29T03:55:22;1.20;;;1.00;;
58252;SDS011;44050;48.884;8.762;2022-07-29T04:00:23;0.90;;;0.90;;
58252;SDS011;44050;48.884;8.762;2022-07-29T04:02:54;4.28;;;1.40;;
58252;SDS011;44050;48.884;8.762;2022-07-29T04:05:26;1.13;;;1.02;;
58252;SDS011;44050;48.884;8.762;2022-07-29T04:10:27;5.27;;;1.60;;
58252;SDS011;44050;48.884;8.762;2022-07-29T04:15:28;2.27;;;1.07;;
58252;SDS011;44050;48.884;8.762;2022-07-29T04:20:32;0.95;;;0.95;;
58252;SDS011;44050;48.884;8.762;2022-07-29T04:25:36;1.47;;;0.70;;
58252;SDS011;44050;48.884;8.762;2022-07-29T04:28:07;1.02;;;0.95;;
58252;SDS011;44050;48.884;8.762;2022-07-29T04:30:38;1.52;;;1.40;;
58252;SDS011;44050;48.884;8.762;2022-07-29T04:33:09;1.67;;;1.58;;
58252;SDS011;44050;48.884;8.762;2022-07-29T04:38:11;1.63;;;0.97;;
58252;SDS011;44050;48.884;8.762;2022-07-29T04:43:12;1.30;;;1.27;;
58252;SDS011;44050;48.884;8.762;2022-07-29T04:48:13;0.67;;;0.67;;
58252;SDS011;44050;48.884;8.762;2022-07-29T04:50:44;1.40;;;1.33;;
58252;SDS011;44050;48.884;8.762;2022-07-29T04:53:15;1.15;;;1.05;;
58252;SDS011;44050;48.884;8.762;2022-07-29T04:55:46;1.65;;;1.55;;
58252;SDS011;44050;48.884;8.762;2022-07-29T04:58:17;1.30;;;1.20;;
58252;SDS011;44050;48.884;8.762;2022-07-29T05:00:47;0.98;;;0.98;;
58252;SDS011;44050;48.884;8.762;2022-07-29T05:03:18;2.08;;;1.08;;
58252;SDS011;44050;48.884;8.762;2022-07-29T05:05:49;1.73;;;1.63;;
58252;SDS011;44050;48.884;8.762;2022-07-29T05:08:20;1.40;;;1.30;;
58252;SDS011;44050;48.884;8.762;2022-07-29T05:10:50;1.27;;;1.27;;
58252;SDS011;44050;48.884;8.762;2022-07-29T05:13:21;0.73;;;0.73;;
58252;SDS011;44050;48.884;8.762;2022-07-29T05:15:52;1.63;;;1.52;;
58252;SDS011;44050;48.884;8.762;2022-07-29T05:18:23;1.20;;;1.20;;
58252;SDS011;44050;48.884;8.762;2022-07-29T05:20:54;1.33;;;1.23;;
58252;SDS011;44050;48.884;8.762;2022-07-29T05:23:25;1.55;;;1.45;;
58252;SDS011;44050;48.884;8.762;2022-07-29T05:25:56;1.67;;;1.52;;
58252;SDS011;44050;48.884;8.762;2022-07-29T05:28:27;1.33;;;1.02;;
58252;SDS011;44050;48.884;8.762;2022-07-29T05:30:57;1.80;;;1.70;;
58252;SDS011;44050;48.884;8.762;2022-07-29T05:33:28;1.42;;;1.27;;
58252;SDS011;44050;48.884;8.762;2022-07-29T05:35:59;0.95;;;0.95;;
58252;SDS011;44050;48.884;8.762;2022-07-29T05:38:30;0.80;;;0.80;;
58252;SDS011;44050;48.884;8.762;2022-07-29T05:41:01;1.65;;;1.52;;
58252;SDS011;44050;48.884;8.762;2022-07-29T05:43:31;1.08;;;1.08;;
58252;SDS011;44050;48.884;8.762;2022-07-29T05:46:02;1.55;;;1.45;;
58252;SDS011;44050;48.884;8.762;2022-07-29T05:48:33;1.40;;;1.30;;
58252;SDS011;44050;48.884;8.762;2022-07-29T05:51:04;1.40;;;1.40;;
58252;SDS011;44050;48.884;8.762;2022-07-29T05:53:35;7.28;;;2.28;;
58252;SDS011;44050;48.884;8.762;2022-07-29T05:56:06;1.98;;;1.88;;
58252;SDS011;44050;48.884;8.762;2022-07-29T05:58:37;1.35;;;1.33;;
58252;SDS011;44050;48.884;8.762;2022-07-29T06:01:08;1.42;;;1.33;;
58252;SDS011;44050;48.884;8.762;2022-07-29T06:03:39;1.13;;;1.13;;
58252;SDS011;44050;48.884;8.762;2022-07-29T06:06:11;2.92;;;1.70;;
58252;SDS011;44050;48.884;8.762;2022-07-29T06:08:42;2.03;;;1.67;;
58252;SDS011;44050;48.884;8.762;2022-07-29T06:11:13;7.05;;;1.88;;
58252;SDS011;44050;48.884;8.762;2022-07-29T06:13:44;1.20;;;1.20;;
58252;SDS011;44050;48.884;8.762;2022-07-29T06:16:14;1.45;;;1.40;;
58252;SDS011;44050;48.884;8.762;2022-07-29T06:18:45;1.30;;;1.20;;
58252;SDS011;44050;48.884;8.762;2022-07-29T06:21:16;1.50;;;1.40;;
58252;SDS011;44050;48.884;8.762;2022-07-29T06:23:47;1.90;;;1.65;;
58252;SDS011;44050;48.884;8.762;2022-07-29T06:26:17;1.45;;;1.45;;
58252;SDS011;44050;48.884;8.762;2022-07-29T06:28:48;2.13;;;2.03;;
58252;SDS011;44050;48.884;8.762;2022-07-29T06:31:19;2.55;;;1.52;;
58252;SDS011;44050;48.884;8.762;2022-07-29T06:33:50;2.00;;;1.80;;
58252;SDS011;44050;48.884;8.762;2022-07-29T06:36:20;1.73;;;1.63;;
58252;SDS011;44050;48.884;8.762;2022-07-29T06:38:51;1.70;;;1.60;;
58252;SDS011;44050;48.884;8.762;2022-07-29T06:41:22;1.52;;;1.45;;
58252;SDS011;44050;48.884;8.762;2022-07-29T06:43:54;1.60;;;1.50;;
58252;SDS011;44050;48.884;8.762;2022-07-29T06:46:24;2.13;;;1.95;;
58252;SDS011;44050;48.884;8.762;2022-07-29T06:48:55;1.95;;;1.85;;
58252;SDS011;44050;48.884;8.762;2022-07-29T06:51:26;1.77;;;1.67;;
58252;SDS011;44050;48.884;8.762;2022-07-29T06:53:57;2.28;;;2.10;;
58252;SDS011;44050;48.884;8.762;2022-07-29T06:56:29;1.88;;;1.40;;
58252;SDS011;44050;48.884;8.762;2022-07-29T06:59:01;1.83;;;1.77;;
58252;SDS011;44050;48.884;8.762;2022-07-29T07:01:31;1.80;;;1.77;;
58252;SDS011;44050;48.884;8.762;2022-07-29T07:04:02;2.25;;;2.05;;
58252;SDS011;44050;48.884;8.762;2022-07-29T07:06:33;1.63;;;1.55;;
58252;SDS011;44050;48.884;8.762;2022-07-29T07:09:04;3.15;;;2.28;;
58252;SDS011;44050;48.884;8.762;2022-07-29T07:11:34;2.03;;;1.80;;
58252;SDS011;44050;48.884;8.762;2022-07-29T07:14:05;2.42;;;2.22;;
58252;SDS011;44050;48.884;8.762;2022-07-29T07:16:36;2.95;;;2.75;;
58252;SDS011;44050;48.884;8.762;2022-07-29T07:19:07;1.60;;;1.50;;
58252;SDS011;44050;48.884;8.762;2022-07-29T07:21:38;2.20;;;1.83;;
58252;SDS011;44050;48.884;8.762;2022-07-29T07:24:08;2.45;;;2.05;;
58252;SDS011;44050;48.884;8.762;2022-07-29T07:26:39;1.80;;;1.70;;
58252;SDS011;44050;48.884;8.762;2022-07-29T07:29:10;1.67;;;1.60;;
58252;SDS011;44050;48.884;8.762;2022-07-29T07:31:41;2.10;;;1.85;;
58252;SDS011;44050;48.884;8.762;2022-07-29T07:34:12;2.20;;;2.10;;
58252;SDS011;44050;48.884;8.762;2022-07-29T07:36:43;2.17;;;2.05;;
58252;SDS011;44050;48.884;8.762;2022-07-29T07:39:14;1.75;;;1.65;;
58252;SDS011;44050;48.884;8.762;2022-07-29T07:41:44;2.92;;;2.60;;
58252;SDS011;44050;48.884;8.762;2022-07-29T07:44:15;3.15;;;2.30;;
58252;SDS011;44050;48.884;8.762;2022-07-29T07:46:46;5.50;;;2.45;;
58252;SDS011;44050;48.884;8.762;2022-07-29T07:49:17;1.90;;;1.80;;
58252;SDS011;44050;48.884;8.762;2022-07-29T07:51:48;1.65;;;1.55;;
58252;SDS011;44050;48.884;8.762;2022-07-29T07:54:19;1.50;;;1.50;;
58252;SDS011;44050;48.884;8.762;2022-07-29T07:56:49;2.65;;;2.55;;
58252;SDS011;44050;48.884;8.762;2022-07-29T07:59:20;2.65;;;2.45;;
58252;SDS011;44050;48.884;8.762;2022-07-29T08:01:51;2.40;;;2.30;;
58252;SDS011;44050;48.884;8.762;2022-07-29T08:04:22;4.28;;;2.38;;
58252;SDS011;44050;48.884;8.762;2022-07-29T08:06:53;2.53;;;2.40;;
58252;SDS011;44050;48.884;8.762;2022-07-29T08:09:27;2.33;;;2.22;;
58252;SDS011;44050;48.884;8.762;2022-07-29T08:11:58;4.90;;;2.22;;
58252;SDS011;44050;48.884;8.762;2022-07-29T08:14:30;1.73;;;1.58;;
58252;SDS011;44050;48.884;8.762;2022-07-29T08:17:00;2.85;;;2.65;;
58252;SDS011;44050;48.884;8.762;2022-07-29T08:19:31;2.53;;;2.33;;
58252;SDS011;44050;48.884;8.762;2022-07-29T08:22:02;2.78;;;2.42;;
58252;SDS011;44050;48.884;8.762;2022-07-29T08:24:32;3.30;;;2.97;;
58252;SDS011;44050;48.884;8.762;2022-07-29T08:27:22;5.32;;;3.00;;
58252;SDS011;44050;48.884;8.762;2022-07-29T08:29:53;6.43;;;2.40;;
58252;SDS011;44050;48.884;8.762;2022-07-29T08:32:26;2.20;;;2.10;;
58252;SDS011;44050;48.884;8.762;2022-07-29T08:34:58;3.40;;;2.53;;
58252;SDS011;44050;48.884;8.762;2022-07-29T08:37:29;2.53;;;2.33;;
58252;SDS011;44050;48.884;8.762;2022-07-29T08:40:00;2.47;;;2.33;;
58252;SDS011;44050;48.884;8.762;2022-07-29T08:42:31;2.00;;;1.90;;
58252;SDS011;44050;48.884;8.762;2022-07-29T08:45:02;2.22;;;2.00;;
58252;SDS011;44050;48.884;8.762;2022-07-29T08:47:33;1.92;;;1.88;;
58252;SDS011;44050;48.884;8.762;2022-07-29T08:50:07;2.22;;;2.13;;
58252;SDS011;44050;48.884;8.762;2022-07-29T08:52:39;2.35;;;2.20;;
58252;SDS011;44050;48.884;8.762;2022-07-29T08:55:10;2.85;;;2.65;;
58252;SDS011;44050;48.884;8.762;2022-07-29T08:57:40;2.13;;;1.75;;
58252;SDS011;44050;48.884;8.762;2022-07-29T09:00:11;8.27;;;2.65;;
58252;SDS011;44050;48.884;8.762;2022-07-29T09:02:43;2.60;;;2.40;;
58252;SDS011;44050;48.884;8.762;2022-07-29T09:05:14;1.60;;;1.55;;
58252;SDS011;44050;48.884;8.762;2022-07-29T09:07:45;2.22;;;2.13;;
58252;SDS011;44050;48.884;8.762;2022-07-29T09:10:18;3.20;;;2.22;;
58252;SDS011;44050;48.884;8.762;2022-07-29T09:12:49;1.90;;;1.80;;
58252;SDS011;44050;48.884;8.762;2022-07-29T09:15:19;1.65;;;1.65;;
58252;SDS011;44050;48.884;8.762;2022-07-29T09:17:50;1.90;;;1.80;;
58252;SDS011;44050;48.884;8.762;2022-07-29T09:20:22;2.97;;;2.58;;
58252;SDS011;44050;48.884;8.762;2022-07-29T09:22:53;1.85;;;1.75;;
58252;SDS011;44050;48.884;8.762;2022-07-29T09:30:34;3.05;;;2.03;;
58252;SDS011;44050;48.884;8.762;2022-07-29T09:33:05;1.88;;;1.77;;
58252;SDS011;44050;48.884;8.762;2022-07-29T09:35:36;1.83;;;1.75;;
58252;SDS011;44050;48.884;8.762;2022-07-29T09:38:11;2.35;;;2.15;;
58252;SDS011;44050;48.884;8.762;2022-07-29T09:40:42;3.55;;;2.42;;
58252;SDS011;44050;48.884;8.762;2022-07-29T09:43:26;1.92;;;1.83;;
58252;SDS011;44050;48.884;8.762;2022-07-29T09:46:04;3.10;;;2.85;;
58252;SDS011;44050;48.884;8.762;2022-07-29T09:48:39;2.40;;;2.30;;
58252;SDS011;44050;48.884;8.762;2022-07-29T09:51:19;2.50;;;2.30;;
58252;SDS011;44050;48.884;8.762;2022-07-29T09:53:50;4.70;;;2.30;;
58252;SDS011;44050;48.884;8.762;2022-07-29T09:56:37;2.75;;;2.55;;
58252;SDS011;44050;48.884;8.762;2022-07-29T09:59:08;3.10;;;2.83;;
58252;SDS011;44050;48.884;8.762;2022-07-29T10:01:39;1.90;;;1.80;;
58252;SDS011;44050;48.884;8.762;2022-07-29T10:04:10;2.30;;;2.20;;
58252;SDS011;44050;48.884;8.762;2022-07-29T10:07:00;4.30;;;2.25;;
58252;SDS011;44050;48.884;8.762;2022-07-29T10:09:32;3.20;;;2.33;;
58252;SDS011;44050;48.884;8.762;2022-07-29T10:12:03;2.03;;;1.92;;
58252;SDS011;44050;48.884;8.762;2022-07-29T10:14:36;2.85;;;1.83;;
58252;SDS011;44050;48.884;8.762;2022-07-29T10:17:07;4.45;;;1.75;;
58252;SDS011;44050;48.884;8.762;2022-07-29T10:19:38;1.92;;;1.83;;
58252;SDS011;44050;48.884;8.762;2022-07-29T10:22:10;3.92;;;2.80;;
58252;SDS011;44050;48.884;8.762;2022-07-29T10:24:40;3.95;;;2.78;;
58252;SDS011;44050;48.884;8.762;2022-07-29T10:27:11;2.17;;;2.08;;
58252;SDS011;44050;48.884;8.762;2022-07-29T10:29:42;2.35;;;2.25;;
58252;SDS011;44050;48.884;8.762;2022-07-29T10:32:16;2.25;;;1.92;;
58252;SDS011;44050;48.884;8.762;2022-07-29T10:40:22;2.28;;;2.17;;
58252;SDS011;44050;48.884;8.762;2022-07-29T10:43:20;2.15;;;2.05;;
58252;SDS011;44050;48.884;8.762;2022-07-29T10:45:56;3.22;;;2.30;;
58252;SDS011;44050;48.884;8.762;2022-07-29T10:48:27;2.08;;;1.95;;
58252;SDS011;44050;48.884;8.762;2022-07-29T10:51:02;2.10;;;1.95;;
58252;SDS011;44050;48.884;8.762;2022-07-29T10:53:47;4.72;;;2.45;;
58252;SDS011;44050;48.884;8.762;2022-07-29T11:01:48;5.23;;;2.33;;
58252;SDS011;44050;48.884;8.762;2022-07-29T11:07:09;2.35;;;2.25;;
58252;SDS011;44050;48.884;8.762;2022-07-29T11:09:40;2.20;;;2.00;;
58252;SDS011;44050;48.884;8.762;2022-07-29T11:12:56;2.60;;;2.40;;
58252;SDS011;44050;48.884;8.762;2022-07-29T11:15:05;3.33;;;3.03;;
58252;SDS011;44050;48.884;8.762;2022-07-29T11:31:44;4.32;;;2.63;;
58252;SDS011;44050;48.884;8.762;2022-07-29T11:34:19;2.05;;;1.92;;
58252;SDS011;44050;48.884;8.762;2022-07-29T11:44:53;1.90;;;1.80;;
58252;SDS011;44050;48.884;8.762;2022-07-29T11:47:25;2.13;;;1.92;;
58252;SDS011;44050;48.884;8.762;2022-07-29T11:49:56;11.25;;;2.17;;
58252;SDS011;44050;48.884;8.762;2022-07-29T11:52:37;9.75;;;3.22;;
58252;SDS011;44050;48.884;8.762;2022-07-29T11:55:16;1.55;;;1.45;;
58252;SDS011;44050;48.884;8.762;2022-07-29T11:57:48;2.40;;;2.25;;
58252;SDS011;44050;48.884;8.762;2022-07-29T12:00:20;3.45;;;2.53;;
58252;SDS011;44050;48.884;8.762;2022-07-29T12:02:52;1.73;;;1.63;;
58252;SDS011;44050;48.884;8.762;2022-07-29T12:05:42;1.77;;;1.67;;
58252;SDS011;44050;48.884;8.762;2022-07-29T12:08:14;2.30;;;2.20;;
58252;SDS011;44050;48.884;8.762;2022-07-29T12:10:47;2.08;;;1.85;;
58252;SDS011;44050;48.884;8.762;2022-07-29T12:13:18;2.15;;;1.80;;
58252;SDS011;44050;48.884;8.762;2022-07-29T12:15:53;2.42;;;2.22;;
58252;SDS011;44050;48.884;8.762;2022-07-29T12:18:24;2.08;;;1.98;;
58252;SDS011;44050;48.884;8.762;2022-07-29T12:20:59;2.20;;;2.10;;
58252;SDS011;44050;48.884;8.762;2022-07-29T12:23:30;2.72;;;2.53;;
58252;SDS011;44050;48.884;8.762;2022-07-29T12:26:04;1.90;;;1.80;;
58252;SDS011;44050;48.884;8.762;2022-07-29T12:28:39;2.15;;;1.85;;
58252;SDS011;44050;48.884;8.762;2022-07-29T12:31:13;2.20;;;1.88;;
58252;SDS011;44050;48.884;8.762;2022-07-29T12:33:44;1.80;;;1.70;;
58252;SDS011;44050;48.884;8.762;2022-07-29T12:36:25;2.33;;;2.22;;
58252;SDS011;44050;48.884;8.762;2022-07-29T12:38:55;2.17;;;2.03;;
58252;SDS011;44050;48.884;8.762;2022-07-29T12:41:27;2.22;;;2.13;;
58252;SDS011;44050;48.884;8.762;2022-07-29T12:43:58;2.22;;;1.90;;
58252;SDS011;44050;48.884;8.762;2022-07-29T12:46:29;2.25;;;2.15;;
58252;SDS011;44050;48.884;8.762;2022-07-29T12:49:00;1.63;;;1.52;;
58252;SDS011;44050;48.884;8.762;2022-07-29T12:51:32;2.10;;;2.00;;
58252;SDS011;44050;48.884;8.762;2022-07-29T12:54:07;2.90;;;1.73;;
58252;SDS011;44050;48.884;8.762;2022-07-29T12:56:42;2.33;;;2.08;;
58252;SDS011;44050;48.884;8.762;2022-07-29T12:59:20;1.63;;;1.58;;
58252;SDS011;44050;48.884;8.762;2022-07-29T13:01:51;1.45;;;1.35;;
58252;SDS011;44050;48.884;8.762;2022-07-29T13:04:32;1.80;;;1.70;;
58252;SDS011;44050;48.884;8.762;2022-07-29T13:07:04;2.83;;;2.03;;
58252;SDS011;44050;48.884;8.762;2022-07-29T13:09:38;1.80;;;1.70;;
58252;SDS011;44050;48.884;8.762;2022-07-29T13:12:09;2.15;;;2.05;;
58252;SDS011;44050;48.884;8.762;2022-07-29T13:14:41;1.52;;;1.10;;
58252;SDS011;44050;48.884;8.762;2022-07-29T13:17:19;1.98;;;1.88;;
58252;SDS011;44050;48.884;8.762;2022-07-29T13:20:04;3.35;;;2.33;;
58252;SDS011;44050;48.884;8.762;2022-07-29T13:22:35;3.80;;;2.55;;
58252;SDS011;44050;48.884;8.762;2022-07-29T13:25:06;2.25;;;2.10;;
58252;SDS011;44050;48.884;8.762;2022-07-29T13:27:37;1.63;;;1.52;;
58252;SDS011;44050;48.884;8.762;2022-07-29T13:30:08;1.30;;;1.25;;
58252;SDS011;44050;48.884;8.762;2022-07-29T13:32:39;13.63;;;2.83;;
58252;SDS011;44050;48.884;8.762;2022-07-29T13:35:10;11.27;;;1.63;;
58252;SDS011;44050;48.884;8.762;2022-07-29T13:37:41;2.80;;;1.85;;
58252;SDS011;44050;48.884;8.762;2022-07-29T13:40:12;1.42;;;1.33;;
58252;SDS011;44050;48.884;8.762;2022-07-29T13:42:43;2.25;;;1.80;;
58252;SDS011;44050;48.884;8.762;2022-07-29T13:45:14;1.95;;;1.80;;
58252;SDS011;44050;48.884;8.762;2022-07-29T13:47:45;1.50;;;1.40;;
58252;SDS011;44050;48.884;8.762;2022-07-29T13:50:15;1.98;;;1.80;;
58252;SDS011;44050;48.884;8.762;2022-07-29T13:52:46;1.42;;;1.33;;
58252;SDS011;44050;48.884;8.762;2022-07-29T13:55:18;1.40;;;1.30;;
58252;SDS011;44050;48.884;8.762;2022-07-29T13:57:50;5.82;;;1.20;;
58252;SDS011;44050;48.884;8.762;2022-07-29T14:00:20;1.17;;;1.15;;
58252;SDS011;44050;48.884;8.762;2022-07-29T14:02:51;1.50;;;1.35;;
58252;SDS011;44050;48.884;8.762;2022-07-29T14:05:22;1.63;;;1.52;;
58252;SDS011;44050;48.884;8.762;2022-07-29T14:07:53;1.42;;;1.23;;
58252;SDS011;44050;48.884;8.762;2022-07-29T14:10:24;1.30;;;1.20;;
58252;SDS011;44050;48.884;8.762;2022-07-29T14:12:55;1.95;;;1.55;;
58252;SDS011;44050;48.884;8.762;2022-07-29T14:15:25;1.10;;;1.10;;
58252;SDS011;44050;48.884;8.762;2022-07-29T14:17:56;2.30;;;0.85;;
58252;SDS011;44050;48.884;8.762;2022-07-29T14:20:27;3.17;;;0.68;;
58252;SDS011;44050;48.884;8.762;2022-07-29T14:23:00;1.10;;;1.00;;
58252;SDS011;44050;48.884;8.762;2022-07-29T14:25:31;1.10;;;1.08;;
58252;SDS011;44050;48.884;8.762;2022-07-29T14:28:01;1.38;;;1.27;;
58252;SDS011;44050;48.884;8.762;2022-07-29T14:30:32;0.80;;;0.80;;
58252;SDS011;44050;48.884;8.762;2022-07-29T14:33:03;2.03;;;1.85;;
58252;SDS011;44050;48.884;8.762;2022-07-29T14:35:34;0.88;;;0.88;;
58252;SDS011;44050;48.884;8.762;2022-07-29T14:38:04;1.17;;;1.17;;
58252;SDS011;44050;48.884;8.762;2022-07-29T14:40:35;3.70;;;1.20;;
58252;SDS011;44050;48.884;8.762;2022-07-29T14:43:06;2.05;;;1.73;;
58252;SDS011;44050;48.884;8.762;2022-07-29T14:45:37;0.95;;;0.90;;
58252;SDS011;44050;48.884;8.762;2022-07-29T14:48:08;2.50;;;1.42;;
58252;SDS011;44050;48.884;8.762;2022-07-29T14:50:39;1.15;;;1.08;;
58252;SDS011;44050;48.884;8.762;2022-07-29T14:53:09;2.28;;;1.30;;
58252;SDS011;44050;48.884;8.762;2022-07-29T14:55:42;1.25;;;1.15;;
58252;SDS011;44050;48.884;8.762;2022-07-29T14:58:13;2.33;;;1.73;;
58252;SDS011;44050;48.884;8.762;2022-07-29T15:00:44;1.65;;;1.55;;
58252;SDS011;44050;48.884;8.762;2022-07-29T15:03:15;1.38;;;1.20;;
58252;SDS011;44050;48.884;8.762;2022-07-29T15:05:45;3.05;;;1.05;;
58252;SDS011;44050;48.884;8.762;2022-07-29T15:08:16;1.02;;;1.00;;
58252;SDS011;44050;48.884;8.762;2022-07-29T15:10:50;0.98;;;0.98;;
58252;SDS011;44050;48.884;8.762;2022-07-29T15:13:21;2.17;;;1.98;;
58252;SDS011;44050;48.884;8.762;2022-07-29T15:15:52;0.80;;;0.80;;
58252;SDS011;44050;48.884;8.762;2022-07-29T15:18:22;1.33;;;1.23;;
58252;SDS011;44050;48.884;8.762;2022-07-29T15:20:53;5.03;;;1.40;;
58252;SDS011;44050;48.884;8.762;2022-07-29T15:23:24;1.77;;;1.48;;
58252;SDS011;44050;48.884;8.762;2022-07-29T15:25:55;2.70;;;1.50;;
58252;SDS011;44050;48.884;8.762;2022-07-29T15:28:26;2.30;;;1.35;;
58252;SDS011;44050;48.884;8.762;2022-07-29T15:30:56;1.67;;;1.58;;
58252;SDS011;44050;48.884;8.762;2022-07-29T15:33:27;2.10;;;1.30;;
58252;SDS011;44050;48.884;8.762;2022-07-29T15:35:58;1.80;;;1.25;;
58252;SDS011;44050;48.884;8.762;2022-07-29T15:38:29;1.30;;;1.20;;
58252;SDS011;44050;48.884;8.762;2022-07-29T15:41:00;1.73;;;1.63;;
58252;SDS011;44050;48.884;8.762;2022-07-29T15:43:31;1.63;;;1.48;;
58252;SDS011;44050;48.884;8.762;2022-07-29T15:46:02;3.42;;;2.15;;
58252;SDS011;44050;48.884;8.762;2022-07-29T15:48:51;1.15;;;1.15;;
58252;SDS011;44050;48.884;8.762;2022-07-29T15:51:22;1.67;;;1.40;;
58252;SDS011;44050;48.884;8.762;2022-07-29T15:53:55;3.75;;;1.70;;
58252;SDS011;44050;48.884;8.762;2022-07-29T15:56:30;2.08;;;1.67;;
58252;SDS011;44050;48.884;8.762;2022-07-29T15:59:01;1.67;;;1.05;;
58252;SDS011;44050;48.884;8.762;2022-07-29T16:01:32;0.98;;;0.60;;
58252;SDS011;44050;48.884;8.762;2022-07-29T16:04:02;1.33;;;0.85;;
58252;SDS011;44050;48.884;8.762;2022-07-29T16:06:33;5.90;;;1.05;;
58252;SDS011;44050;48.884;8.762;2022-07-29T16:09:04;1.27;;;1.27;;
58252;SDS011;44050;48.884;8.762;2022-07-29T16:11:36;1.50;;;1.40;;
58252;SDS011;44050;48.884;8.762;2022-07-29T16:14:07;3.63;;;0.80;;
58252;SDS011;44050;48.884;8.762;2022-07-29T16:16:39;1.17;;;0.95;;
58252;SDS011;44050;48.884;8.762;2022-07-29T16:19:11;1.42;;;1.38;;
58252;SDS011;44050;48.884;8.762;2022-07-29T16:21:42;1.08;;;0.98;;
58252;SDS011;44050;48.884;8.762;2022-07-29T16:24:13;3.00;;;1.17;;
58252;SDS011;44050;48.884;8.762;2022-07-29T16:26:44;1.15;;;1.10;;
58252;SDS011;44050;48.884;8.762;2022-07-29T16:29:15;3.58;;;1.40;;
58252;SDS011;44050;48.884;8.762;2022-07-29T16:31:47;1.33;;;0.95;;
58252;SDS011;44050;48.884;8.762;2022-07-29T16:34:18;1.27;;;1.17;;
58252;SDS011;44050;48.884;8.762;2022-07-29T16:36:49;1.27;;;1.10;;
58252;SDS011;44050;48.884;8.762;2022-07-29T16:39:20;1.15;;;1.00;;
58252;SDS011;44050;48.884;8.762;2022-07-29T16:41:51;0.98;;;0.98;;
58252;SDS011;44050;48.884;8.762;2022-07-29T16:44:22;1.30;;;1.27;;
58252;SDS011;44050;48.884;8.762;2022-07-29T16:46:53;1.55;;;0.82;;
58252;SDS011;44050;48.884;8.762;2022-07-29T16:49:24;1.20;;;1.20;;
58252;SDS011;44050;48.884;8.762;2022-07-29T16:51:54;1.65;;;1.42;;
58252;SDS011;44050;48.884;8.762;2022-07-29T16:54:25;1.10;;;1.10;;
58252;SDS011;44050;48.884;8.762;2022-07-29T16:56:56;1.55;;;1.35;;
58252;SDS011;44050;48.884;8.762;2022-07-29T16:59:29;0.80;;;0.80;;
58252;SDS011;44050;48.884;8.762;2022-07-29T17:02:01;9.10;;;1.90;;
58252;SDS011;44050;48.884;8.762;2022-07-29T17:04:32;0.95;;;0.95;;
58252;SDS011;44050;48.884;8.762;2022-07-29T17:07:07;1.60;;;1.50;;
58252;SDS011;44050;48.884;8.762;2022-07-29T17:09:38;1.65;;;1.08;;